Time;durP1;ratioP1;P1;durP2;ratioP2;P2;SDS_P1;SDS_P2;PMS_P1;PMS_P2;Temp;Humidity;BMP_temperature;BMP_pressure;BME280_temperature;BME280_humidity;BME280_pressure;Samples;Min_cycle;Max_cycle;Signal;HPM_P1;HPM_P2
2022/09/06 00:01:18;;;;;;;;;;;;;;;19.85;81.46;100636.22;5067785;28;1882;-84
2022/09/06 00:03:44;;;;;;;;;;;;;;;19.92;80.79;100630.09;5061347;28;1315;-84
2022/09/06 00:06:11;;;;;;;;;;;;;;;19.85;81.69;100629.84;5066859;28;1350;-84
2022/09/06 00:08:37;;;;;;;;;;;;;;;19.91;81.21;100631.25;5042984;28;1384;-84
2022/09/06 00:11:02;;;;;;;;;;;;;;;19.92;81.10;100628.13;5048857;28;1625;-84
2022/09/06 00:13:27;;;;;;;;;;;;;;;19.94;79.85;100633.34;5054357;28;1499;-86
2022/09/06 00:15:52;;;;;;;;;;;;;;;19.88;81.16;100629.97;5059322;28;1454;-84
2022/09/06 00:18:17;;;;;;;;;;;;;;;19.62;81.04;100594.09;5044093;28;1437;-85
2022/09/06 00:20:43;;;;;;;;;;;;;;;19.82;79.87;100631.31;5037623;28;1895;-86
2022/09/06 00:23:08;;;;;;;;;;;;;;;19.86;80.57;100637.03;5038558;28;1704;-84
2022/09/06 00:25:33;;;;;;;;;;;;;;;19.86;80.67;100634.25;5056659;28;1454;-84
2022/09/06 00:28:00;;;;;;;;;;;;;;;19.78;82.21;100641.50;5052285;28;1387;-87
2022/09/06 00:30:26;;;;;;;;;;;;;;;19.69;81.79;100642.72;5056417;28;1370;-87
2022/09/06 00:32:53;;;;;;;;;;;;;;;19.55;83.18;100634.66;5048919;28;1476;-83
2022/09/06 00:35:18;;;;;;;;;;;;;;;19.58;81.92;100636.75;5036493;28;1716;-84
2022/09/06 00:37:44;;;;;;;;;;;;;;;19.70;81.73;100631.28;5042453;28;1394;-84
2022/09/06 00:40:09;;;;;;;;;;;;;;;19.76;81.25;100618.78;5044919;28;1961;-84
2022/09/06 00:42:34;;;;;;;;;;;;;;;19.71;80.00;100619.00;5053790;28;1410;-84
2022/09/06 00:44:59;;;;;;;;;;;;;;;19.69;81.44;100621.31;5033680;28;1623;-86
2022/09/06 00:47:26;;;;;;;;;;;;;;;19.70;81.63;100611.84;5040618;28;1274;-84
2022/09/06 00:49:52;;;;;;;;;;;;;;;19.68;82.00;100618.88;5047321;28;1560;-84
2022/09/06 00:52:18;;;;;;;;;;;;;;;19.60;82.31;100628.88;5040074;28;1454;-83
2022/09/06 00:54:44;;;;;;;;;;;;;;;19.58;82.77;100620.06;5041446;28;1261;-84
2022/09/06 00:57:09;;;;;;;;;;;;;;;19.50;82.63;100612.63;5040921;28;1409;-86
2022/09/06 00:59:36;;;;;;;;;;;;;;;19.45;83.68;100615.56;5048386;28;1971;-87
2022/09/06 01:02:02;;;;;;;;;;;;;;;19.42;83.37;100613.47;5046665;28;1400;-84
2022/09/06 01:04:28;;;;;;;;;;;;;;;19.45;83.69;100610.84;5043633;28;1324;-84
2022/09/06 01:07:02;;;;;;;;;;;;;;;19.47;80.99;100602.19;5055993;28;1433;-84
2022/09/06 01:09:46;;;;;;;;;;;;;;;19.52;82.77;100611.16;5044213;28;1463;-84
2022/09/06 01:12:20;;;;;;;;;;;;;;;19.48;83.32;100606.63;5028509;28;1438;-85
2022/09/06 01:15:04;;;;;;;;;;;;;;;19.42;82.67;100614.28;5039572;28;1571;-84
2022/09/06 01:17:42;;;;;;;;;;;;;;;19.39;82.01;100606.66;5051704;28;1409;-84
2022/09/06 01:20:26;;;;;;;;;;;;;;;19.32;83.60;100597.19;5054082;28;1902;-84
2022/09/06 01:23:03;;;;;;;;;;;;;;;19.33;83.51;100596.88;5039447;28;1391;-86
2022/09/06 01:25:35;;;;;;;;;;;;;;;19.31;83.48;100582.50;5043191;28;1514;-84
2022/09/06 01:28:15;;;;;;;;;;;;;;;19.24;84.31;100594.16;5052085;28;1490;-84
2022/09/06 01:30:45;;;;;;;;;;;;;;;19.15;84.46;100593.38;5056024;28;1544;-84
2022/09/06 01:33:10;;;;;;;;;;;;;;;19.18;85.14;100597.47;5059805;28;1411;-84
2022/09/06 01:35:47;;;;;;;;;;;;;;;19.13;84.24;100578.25;5038592;28;1739;-86
2022/09/06 01:38:13;;;;;;;;;;;;;;;19.04;84.58;100589.41;5035639;28;1510;-84
2022/09/06 01:40:38;;;;;;;;;;;;;;;19.11;84.20;100589.66;5040168;28;1882;-83
2022/09/06 01:43:05;;;;;;;;;;;;;;;18.98;84.09;100587.13;5044369;28;1486;-84
2022/09/06 01:45:42;;;;;;;;;;;;;;;18.92;85.41;100583.72;5048266;28;1580;-84
2022/09/06 01:48:08;;;;;;;;;;;;;;;18.79;85.97;100593.94;5052347;28;1567;-86
2022/09/06 01:50:42;;;;;;;;;;;;;;;18.79;86.12;100579.25;5051743;28;1514;-84
2022/09/06 01:53:19;;;;;;;;;;;;;;;18.85;85.64;100583.44;5041643;28;1354;-84
2022/09/06 01:55:57;;;;;;;;;;;;;;;18.85;85.95;100577.91;5037606;28;1477;-84
2022/09/06 01:58:41;;;;;;;;;;;;;;;18.82;85.57;100590.47;5044555;28;1398;-84
2022/09/06 02:01:25;;;;;;;;;;;;;;;18.83;85.51;100592.09;5050494;28;1917;-84
2022/09/06 02:03:57;;;;;;;;;;;;;;;18.85;85.64;100597.31;5047098;28;1347;-84
2022/09/06 02:06:26;;;;;;;;;;;;;;;18.87;84.56;100590.28;5048008;28;1446;-84
2022/09/06 02:08:54;;;;;;;;;;;;;;;18.84;84.68;100588.19;5055240;28;1232;-84
2022/09/06 02:11:20;;;;;;;;;;;;;;;18.62;85.11;100576.56;5044353;28;1545;-84
2022/09/06 02:13:51;;;;;;;;;;;;;;;18.64;86.22;100580.59;5041666;28;1434;-84
2022/09/06 02:16:19;;;;;;;;;;;;;;;18.67;86.46;100574.41;5027595;28;1683;-84
2022/09/06 02:18:50;;;;;;;;;;;;;;;18.71;86.33;100569.81;5061427;28;1287;-84
2022/09/06 02:21:17;;;;;;;;;;;;;;;18.69;85.91;100571.28;5050768;28;1965;-84
2022/09/06 02:23:43;;;;;;;;;;;;;;;18.67;85.45;100568.84;5046081;28;1442;-84
2022/09/06 02:26:19;;;;;;;;;;;;;;;18.68;85.75;100566.88;5051946;28;1540;-84
2022/09/06 02:28:45;;;;;;;;;;;;;;;18.68;85.60;100564.13;5041832;28;1459;-86
2022/09/06 02:31:33;;;;;;;;;;;;;;;18.72;84.86;100552.00;5054206;28;1396;-84
2022/09/06 02:33:59;;;;;;;;;;;;;;;18.64;85.95;100557.59;5045554;28;1661;-84
2022/09/06 02:36:24;;;;;;;;;;;;;;;18.53;86.20;100552.41;5050993;28;1382;-84
2022/09/06 02:38:50;;;;;;;;;;;;;;;18.54;86.69;100558.78;5038290;28;1402;-84
2022/09/06 02:41:17;;;;;;;;;;;;;;;18.49;86.50;100553.41;5051001;28;1902;-85
2022/09/06 02:43:42;;;;;;;;;;;;;;;18.47;85.80;100553.72;5048494;28;1409;-84
2022/09/06 02:46:08;;;;;;;;;;;;;;;18.48;85.63;100560.91;5051776;28;1648;-84
2022/09/06 02:48:33;;;;;;;;;;;;;;;18.45;87.18;100567.13;5046764;28;1426;-84
2022/09/06 02:51:01;;;;;;;;;;;;;;;18.38;85.92;100554.91;5050152;28;1522;-83
2022/09/06 02:53:26;;;;;;;;;;;;;;;18.34;86.82;100563.06;5058344;28;1509;-84
2022/09/06 02:55:51;;;;;;;;;;;;;;;18.31;86.75;100560.97;5067723;28;1482;-84
2022/09/06 02:58:16;;;;;;;;;;;;;;;18.28;87.29;100564.41;5054515;28;1549;-84
2022/09/06 03:00:42;;;;;;;;;;;;;;;18.35;86.60;100564.72;5055915;28;1952;-86
2022/09/06 03:03:08;;;;;;;;;;;;;;;18.26;88.05;100575.00;5059395;28;1542;-84
2022/09/06 03:05:33;;;;;;;;;;;;;;;18.25;87.94;100569.78;5047496;28;1474;-84
2022/09/06 03:07:58;;;;;;;;;;;;;;;18.27;86.73;100560.00;5037865;28;1514;-84
2022/09/06 03:10:25;;;;;;;;;;;;;;;18.29;86.91;100570.75;5054855;28;1478;-84
2022/09/06 03:12:50;;;;;;;;;;;;;;;18.34;86.85;100576.13;5053347;28;1395;-84
2022/09/06 03:15:15;;;;;;;;;;;;;;;18.36;86.42;100566.34;5055130;28;1411;-84
2022/09/06 03:17:41;;;;;;;;;;;;;;;18.35;87.84;100564.72;5030909;28;1458;-84
2022/09/06 03:20:08;;;;;;;;;;;;;;;18.30;86.65;100562.09;5042044;28;1883;-84
2022/09/06 03:22:33;;;;;;;;;;;;;;;18.26;87.44;100563.91;5051587;28;1417;-84
2022/09/06 03:24:59;;;;;;;;;;;;;;;18.18;87.25;100566.72;5039972;28;1391;-84
2022/09/06 03:27:24;;;;;;;;;;;;;;;18.05;87.51;100563.78;5038435;28;1429;-84
2022/09/06 03:29:49;;;;;;;;;;;;;;;18.02;88.47;100561.69;5057750;28;1572;-84
2022/09/06 03:32:14;;;;;;;;;;;;;;;18.06;88.33;100567.38;5048148;28;1384;-84
2022/09/06 03:34:40;;;;;;;;;;;;;;;18.10;89.03;100555.31;5050420;28;1641;-85
2022/09/06 03:37:05;;;;;;;;;;;;;;;18.11;88.80;100554.19;5055988;28;1568;-87
2022/09/06 03:39:30;;;;;;;;;;;;;;;18.10;88.83;100555.31;5041683;28;1673;-84
2022/09/06 03:41:55;;;;;;;;;;;;;;;18.08;89.30;100554.84;5056752;28;1872;-85
2022/09/06 03:44:20;;;;;;;;;;;;;;;18.05;87.85;100552.72;5051182;28;1378;-85
2022/09/06 03:46:45;;;;;;;;;;;;;;;18.08;89.24;100542.94;5049411;28;1386;-85
2022/09/06 03:49:10;;;;;;;;;;;;;;;18.04;88.96;100544.72;5041410;28;1723;-84
2022/09/06 03:51:36;;;;;;;;;;;;;;;18.01;87.95;100545.41;5055870;28;1410;-84
2022/09/06 03:54:01;;;;;;;;;;;;;;;17.97;89.42;100547.19;5043981;28;1807;-84
2022/09/06 03:56:26;;;;;;;;;;;;;;;17.93;88.32;100546.22;5055715;28;1386;-85
2022/09/06 03:58:51;;;;;;;;;;;;;;;17.90;89.57;100539.38;5058759;28;1861;-84
2022/09/06 04:01:16;;;;;;;;;;;;;;;17.79;89.78;100535.31;5065293;28;1883;-84
2022/09/06 04:03:41;;;;;;;;;;;;;;;17.64;89.51;100531.09;5058750;28;1422;-83
2022/09/06 04:06:07;;;;;;;;;;;;;;;17.78;90.17;100537.28;5060070;28;1419;-83
2022/09/06 04:08:32;;;;;;;;;;;;;;;17.86;89.10;100534.84;5046803;28;1359;-85
2022/09/06 04:10:58;;;;;;;;;;;;;;;17.84;88.44;100531.59;5055922;28;1375;-86
2022/09/06 04:13:23;;;;;;;;;;;;;;;17.67;89.09;100524.13;5042244;28;1758;-84
2022/09/06 04:15:49;;;;;;;;;;;;;;;17.78;90.56;100530.91;5038210;28;1457;-84
2022/09/06 04:18:15;;;;;;;;;;;;;;;17.83;90.03;100521.66;5039695;28;1569;-84
2022/09/06 04:20:40;;;;;;;;;;;;;;;17.81;90.30;100529.47;5045720;28;1906;-84
2022/09/06 04:23:06;;;;;;;;;;;;;;;17.71;90.03;100519.53;5044925;28;1500;-84
2022/09/06 04:25:31;;;;;;;;;;;;;;;17.71;90.76;100525.88;5045023;28;1735;-84
2022/09/06 04:27:56;;;;;;;;;;;;;;;17.74;89.44;100529.97;5022546;28;1578;-83
2022/09/06 04:30:21;;;;;;;;;;;;;;;17.72;89.97;100521.16;5034405;28;1741;-84
2022/09/06 04:32:46;;;;;;;;;;;;;;;17.65;89.70;100518.91;5039854;28;1585;-84
2022/09/06 04:35:12;;;;;;;;;;;;;;;17.73;89.50;100529.16;5030188;28;1450;-84
2022/09/06 04:37:37;;;;;;;;;;;;;;;17.75;89.93;100529.66;5049875;28;1322;-85
2022/09/06 04:40:02;;;;;;;;;;;;;;;17.75;90.43;100521.34;5046204;28;1969;-87
2022/09/06 04:42:27;;;;;;;;;;;;;;;17.39;90.15;100485.69;5046130;28;1626;-85
2022/09/06 04:44:53;;;;;;;;;;;;;;;17.63;90.17;100523.13;5042044;28;1509;-84
2022/09/06 04:47:18;;;;;;;;;;;;;;;17.50;90.37;100529.63;5040457;28;898;-85
2022/09/06 04:49:44;;;;;;;;;;;;;;;17.54;91.08;100533.34;5042598;28;1598;-85
2022/09/06 04:52:10;;;;;;;;;;;;;;;17.48;90.91;100538.25;5041714;28;1349;-85
2022/09/06 04:54:35;;;;;;;;;;;;;;;17.40;91.33;100556.47;5050169;28;1496;-84
2022/09/06 04:57:00;;;;;;;;;;;;;;;17.17;91.31;100568.84;5035513;28;1188;-86
2022/09/06 04:59:25;;;;;;;;;;;;;;;17.35;91.63;100573.22;5036301;28;1764;-84
2022/09/06 05:01:50;;;;;;;;;;;;;;;17.56;92.09;100542.16;5031430;28;1886;-86
2022/09/06 05:04:15;;;;;;;;;;;;;;;17.74;90.75;100539.09;5020898;28;1355;-86
2022/09/06 05:06:41;;;;;;;;;;;;;;;17.83;90.43;100544.63;5034914;28;1120;-85
2022/09/06 05:09:07;;;;;;;;;;;;;;;17.74;90.62;100550.16;5036002;28;1775;-85
2022/09/06 05:11:32;;;;;;;;;;;;;;;17.68;91.59;100547.91;5046942;28;1789;-84
2022/09/06 05:13:57;;;;;;;;;;;;;;;17.71;90.84;100547.22;5048622;28;1399;-86
2022/09/06 05:16:22;;;;;;;;;;;;;;;17.75;90.23;100546.25;5044179;28;1351;-86
2022/09/06 05:18:48;;;;;;;;;;;;;;;17.78;90.95;100539.22;5035973;28;1229;-87
2022/09/06 05:21:13;;;;;;;;;;;;;;;17.82;90.23;100534.69;5032118;28;1902;-88
2022/09/06 05:23:38;;;;;;;;;;;;;;;17.85;90.42;100539.56;5034066;28;1457;-85
2022/09/06 05:26:03;;;;;;;;;;;;;;;17.89;89.58;100550.78;5031252;28;1577;-85
2022/09/06 05:28:29;;;;;;;;;;;;;;;17.95;89.68;100552.25;5037915;28;1574;-85
2022/09/06 05:31:03;;;;;;;;;;;;;;;17.94;90.83;100551.44;5044724;28;1450;-85
2022/09/06 05:33:28;;;;;;;;;;;;;;;17.98;90.50;100549.63;5055983;28;1186;-85
2022/09/06 05:35:54;;;;;;;;;;;;;;;18.00;91.25;100543.78;5023192;28;1755;-86
2022/09/06 05:38:19;;;;;;;;;;;;;;;17.87;91.78;100556.66;5050163;28;1683;-85
2022/09/06 05:40:44;;;;;;;;;;;;;;;17.76;91.63;100552.59;5038273;28;1953;-84
2022/09/06 05:43:09;;;;;;;;;;;;;;;17.84;90.73;100556.50;5061075;28;1986;-83
2022/09/06 05:45:34;;;;;;;;;;;;;;;17.90;91.67;100560.72;5070731;28;1278;-84
2022/09/06 05:47:59;;;;;;;;;;;;;;;17.85;91.19;100563.69;5070246;28;1475;-85
2022/09/06 05:50:25;;;;;;;;;;;;;;;17.78;91.85;100570.50;5069970;28;1277;-86
2022/09/06 05:52:52;;;;;;;;;;;;;;;17.86;92.09;100573.63;5054026;28;1126;-85
2022/09/06 05:55:17;;;;;;;;;;;;;;;17.90;91.18;100589.22;5045765;28;1467;-84
2022/09/06 05:57:42;;;;;;;;;;;;;;;17.80;91.98;100570.19;5051692;28;1146;-84
2022/09/06 06:00:10;;;;;;;;;;;;;;;17.88;93.21;100571.31;5054059;28;1952;-85
2022/09/06 06:02:35;;;;;;;;;;;;;;;17.95;93.34;100582.72;5054206;28;1206;-85
2022/09/06 06:05:01;;;;;;;;;;;;;;;17.97;92.84;100594.28;5053863;28;985;-84
2022/09/06 06:07:26;;;;;;;;;;;;;;;17.86;92.48;100588.28;5056349;28;1334;-85
2022/09/06 06:09:51;;;;;;;;;;;;;;;17.84;93.45;100590.56;5052272;28;1437;-84
2022/09/06 06:12:16;;;;;;;;;;;;;;;17.84;92.78;100587.78;5053942;28;1136;-85
2022/09/06 06:14:41;;;;;;;;;;;;;;;17.88;92.83;100585.16;5055789;28;870;-86
2022/09/06 06:17:06;;;;;;;;;;;;;;;17.92;94.11;100586.13;5054879;28;1053;-86
2022/09/06 06:19:31;;;;;;;;;;;;;;;17.94;92.65;100597.72;5053362;28;1337;-85
2022/09/06 06:21:57;;;;;;;;;;;;;;;17.98;93.06;100584.81;5054867;28;1890;-84
2022/09/06 06:24:22;;;;;;;;;;;;;;;18.01;94.13;100578.63;5047920;28;1609;-85
2022/09/06 06:26:47;;;;;;;;;;;;;;;18.07;93.98;100583.66;5054277;28;1168;-85
2022/09/06 06:29:13;;;;;;;;;;;;;;;18.01;92.83;100590.53;5053157;28;1278;-85
2022/09/06 06:31:38;;;;;;;;;;;;;;;18.05;93.32;100585.94;5053747;28;1271;-84
2022/09/06 06:34:03;;;;;;;;;;;;;;;18.06;93.54;100584.00;5053734;28;1346;-84
2022/09/06 06:36:30;;;;;;;;;;;;;;;18.12;92.14;100577.13;5053087;28;1291;-85
2022/09/06 06:38:55;;;;;;;;;;;;;;;18.21;92.26;100577.13;5042622;28;1404;-84
2022/09/06 06:41:22;;;;;;;;;;;;;;;18.25;92.48;100594.72;5049018;28;1898;-85
2022/09/06 06:43:49;;;;;;;;;;;;;;;18.21;93.93;100599.28;5054675;28;1153;-84
2022/09/06 06:46:15;;;;;;;;;;;;;;;18.14;93.67;100583.16;5054209;28;1059;-84
2022/09/06 06:48:42;;;;;;;;;;;;;;;18.15;95.30;100590.34;5053172;28;1212;-84
2022/09/06 06:51:08;;;;;;;;;;;;;;;18.17;93.95;100585.28;5050545;28;1614;-86
2022/09/06 06:53:35;;;;;;;;;;;;;;;18.17;93.90;100576.97;5050750;28;1188;-85
2022/09/06 06:56:00;;;;;;;;;;;;;;;18.18;94.20;100575.84;5053245;28;1211;-84
2022/09/06 06:58:25;;;;;;;;;;;;;;;18.19;94.81;100574.69;5040023;28;1534;-85
2022/09/06 07:00:50;;;;;;;;;;;;;;;18.17;95.45;100581.69;5054233;28;1890;-86
2022/09/06 07:03:15;;;;;;;;;;;;;;;18.15;95.52;100590.34;5054182;28;1053;-87
2022/09/06 07:05:47;;;;;;;;;;;;;;;18.15;94.95;100587.56;5049760;28;1424;-85
2022/09/06 07:08:12;;;;;;;;;;;;;;;18.21;94.70;100586.25;5053165;28;1407;-85
2022/09/06 07:10:37;;;;;;;;;;;;;;;18.24;95.69;100577.28;5054192;28;1217;-85
2022/09/06 07:13:03;;;;;;;;;;;;;;;18.26;95.67;100576.97;5053000;28;1494;-84
2022/09/06 07:15:28;;;;;;;;;;;;;;;18.29;95.85;100576.31;5054279;28;861;-85
2022/09/06 07:17:53;;;;;;;;;;;;;;;18.30;95.66;100575.94;5044556;28;1494;-84
2022/09/06 07:20:19;;;;;;;;;;;;;;;18.36;96.27;100574.66;5054050;28;1971;-85
2022/09/06 07:22:44;;;;;;;;;;;;;;;18.44;95.26;100573.81;5052666;28;1282;-84
2022/09/06 07:25:11;;;;;;;;;;;;;;;18.58;93.36;100570.03;5053083;28;1234;-85
2022/09/06 07:27:37;;;;;;;;;;;;;;;18.68;92.69;100566.88;5052859;28;1234;-85
2022/09/06 07:30:02;;;;;;;;;;;;;;;18.77;93.05;100562.13;5054356;28;1220;-85
2022/09/06 07:32:27;;;;;;;;;;;;;;;18.81;92.70;100572.19;5045874;28;1499;-85
2022/09/06 07:34:52;;;;;;;;;;;;;;;18.76;92.69;100572.41;5052827;28;1167;-85
2022/09/06 07:37:17;;;;;;;;;;;;;;;18.80;91.39;100569.75;5053883;28;1036;-85
2022/09/06 07:39:43;;;;;;;;;;;;;;;18.90;91.12;100561.88;5048044;28;1427;-85
2022/09/06 07:42:08;;;;;;;;;;;;;;;18.98;90.92;100559.38;5053569;28;1879;-87
2022/09/06 07:44:33;;;;;;;;;;;;;;;19.03;90.63;100562.78;5048724;28;1399;-87
2022/09/06 07:47:01;;;;;;;;;;;;;;;19.11;90.73;100561.13;5052447;28;1247;-86
2022/09/06 07:49:27;;;;;;;;;;;;;;;19.26;90.05;100560.50;5053790;28;1222;-87
2022/09/06 07:51:52;;;;;;;;;;;;;;;19.44;88.69;100556.47;5050469;28;1411;-86
2022/09/06 07:54:17;;;;;;;;;;;;;;;19.53;88.26;100559.22;5052438;28;1131;-87
2022/09/06 07:56:42;;;;;;;;;;;;;;;19.64;88.23;100558.47;5053433;28;1063;-87
2022/09/06 07:59:08;;;;;;;;;;;;;;;19.65;88.23;100553.69;5049757;28;1478;-87
2022/09/06 08:01:36;;;;;;;;;;;;;;;19.66;88.17;100552.53;5053849;28;1969;-87
2022/09/06 08:04:03;;;;;;;;;;;;;;;19.68;87.85;100544.69;5052727;28;1297;-86
2022/09/06 08:06:30;;;;;;;;;;;;;;;19.69;88.22;100551.06;5053546;28;818;-88
2022/09/06 08:08:55;;;;;;;;;;;;;;;19.71;87.96;100546.81;5053351;28;1325;-87
2022/09/06 08:11:21;;;;;;;;;;;;;;;19.66;87.84;100549.78;5053565;28;1404;-87
2022/09/06 08:13:50;;;;;;;;;;;;;;;19.59;88.70;100560.63;5051579;28;1420;-87
2022/09/06 08:16:16;;;;;;;;;;;;;;;19.52;88.34;100552.03;5053915;28;1416;-88
2022/09/06 08:18:41;;;;;;;;;;;;;;;19.48;88.67;100556.66;5052205;28;1431;-86
2022/09/06 08:21:07;;;;;;;;;;;;;;;19.46;88.83;100548.63;5058489;28;1901;-86
2022/09/06 08:23:32;;;;;;;;;;;;;;;19.44;90.37;100544.53;5077379;28;973;-86
2022/09/06 08:25:57;;;;;;;;;;;;;;;19.42;90.62;100549.63;5078518;28;1037;-86
2022/09/06 08:28:22;;;;;;;;;;;;;;;19.45;89.56;100555.31;5074186;28;1328;-87
2022/09/06 08:30:48;;;;;;;;;;;;;;;19.48;89.90;100545.53;5057461;28;1279;-86
2022/09/06 08:33:14;;;;;;;;;;;;;;;19.47;89.73;100553.06;5056802;28;997;-86
2022/09/06 08:35:39;;;;;;;;;;;;;;;19.42;90.32;100546.84;5065105;28;1257;-86
2022/09/06 08:38:04;;;;;;;;;;;;;;;19.42;91.53;100547.66;5079392;28;1222;-85
2022/09/06 08:40:30;;;;;;;;;;;;;;;19.42;91.25;100550.44;5079139;28;1901;-87
2022/09/06 08:42:55;;;;;;;;;;;;;;;19.45;90.26;100552.53;5075676;28;1296;-85
2022/09/06 08:45:22;;;;;;;;;;;;;;;19.48;88.18;100548.31;5075799;28;1322;-86
2022/09/06 08:47:49;;;;;;;;;;;;;;;19.58;86.27;100554.25;5077088;28;1321;-86
2022/09/06 08:50:14;;;;;;;;;;;;;;;19.71;85.41;100544.03;5052374;28;1486;-86
2022/09/06 08:52:55;;;;;;;;;;;;;;;19.75;85.94;100542.19;5053592;28;1190;-87
2022/09/06 08:55:20;;;;;;;;;;;;;;;19.80;85.60;100539.22;5056559;28;822;-87
2022/09/06 08:57:57;;;;;;;;;;;;;;;19.84;84.80;100547.66;5056619;28;851;-87
2022/09/06 09:00:22;;;;;;;;;;;;;;;19.92;84.14;100536.44;5047651;28;1993;-87
2022/09/06 09:03:13;;;;;;;;;;;;;;;19.98;84.17;100532.31;5056100;28;1172;-87
2022/09/06 09:05:40;;;;;;;;;;;;;;;20.17;83.53;100528.19;5054872;28;1008;-87
2022/09/06 09:08:24;;;;;;;;;;;;;;;20.19;84.74;100521.13;5055982;28;1067;-87
2022/09/06 09:10:52;;;;;;;;;;;;;;;20.20;84.63;100519.97;5054822;28;1352;-87
2022/09/06 09:13:32;;;;;;;;;;;;;;;20.19;84.83;100518.34;5064984;28;1279;-87
2022/09/06 09:15:57;;;;;;;;;;;;;;;20.23;84.49;100522.09;5050003;28;1419;-86
2022/09/06 09:18:25;;;;;;;;;;;;;;;20.29;84.13;100517.09;5055739;28;1101;-88
2022/09/06 09:20:51;;;;;;;;;;;;;;;20.32;84.71;100511.69;5054465;28;1902;-87
2022/09/06 09:23:16;;;;;;;;;;;;;;;20.34;84.63;100514.13;5056443;28;1215;-87
2022/09/06 09:25:42;;;;;;;;;;;;;;;20.35;84.36;100513.78;5054447;28;925;-86
2022/09/06 09:28:15;;;;;;;;;;;;;;;20.47;84.27;100518.53;5054479;28;1214;-86
2022/09/06 09:30:46;;;;;;;;;;;;;;;20.47;83.92;100517.72;5054406;28;1300;-87
2022/09/06 09:33:28;;;;;;;;;;;;;;;20.53;83.93;100517.16;5044128;28;1471;-87
2022/09/06 09:35:54;;;;;;;;;;;;;;;20.62;83.45;100508.69;5038683;28;1282;-86
2022/09/06 09:38:30;;;;;;;;;;;;;;;20.60;82.41;100505.44;5054142;28;1357;-87
2022/09/06 09:40:57;;;;;;;;;;;;;;;20.64;83.86;100512.75;5055651;28;1973;-87
2022/09/06 09:43:25;;;;;;;;;;;;;;;20.71;83.62;100501.84;5054455;28;1356;-87
2022/09/06 09:46:07;;;;;;;;;;;;;;;20.73;82.97;100499.53;5054063;28;1309;-87
2022/09/06 09:48:32;;;;;;;;;;;;;;;20.76;81.68;100498.84;5050980;28;1557;-86
2022/09/06 09:51:14;;;;;;;;;;;;;;;20.84;82.08;100499.09;5036879;28;1598;-86
2022/09/06 09:53:48;;;;;;;;;;;;;;;20.84;82.33;100493.50;5018161;28;1421;-86
2022/09/06 09:56:13;;;;;;;;;;;;;;;20.93;82.44;100492.19;5017763;28;1335;-86
2022/09/06 09:58:39;;;;;;;;;;;;;;;20.97;82.40;100497.88;5020167;28;1221;-87
2022/09/06 10:01:08;;;;;;;;;;;;;;;20.94;81.72;100487.44;5034930;28;1963;-86
2022/09/06 10:03:33;;;;;;;;;;;;;;;20.95;80.64;100486.28;5034881;28;1415;-86
2022/09/06 10:05:59;;;;;;;;;;;;;;;20.95;81.04;100483.50;5038020;28;1321;-86
2022/09/06 10:08:26;;;;;;;;;;;;;;;20.97;81.49;100473.66;5037422;28;1202;-86
2022/09/06 10:10:51;;;;;;;;;;;;;;;21.05;81.49;100477.47;5036114;28;1538;-86
2022/09/06 10:13:19;;;;;;;;;;;;;;;21.08;80.57;100471.22;5040285;28;1460;-87
2022/09/06 10:15:45;;;;;;;;;;;;;;;21.14;80.01;100475.34;5037516;28;1164;-86
2022/09/06 10:18:19;;;;;;;;;;;;;;;21.15;79.74;100472.22;5037422;28;1219;-86
2022/09/06 10:20:54;;;;;;;;;;;;;;;21.20;78.23;100468.41;5036352;28;2051;-87
2022/09/06 10:23:25;;;;;;;;;;;;;;;21.23;79.71;100464.94;5036316;28;1309;-86
2022/09/06 10:25:56;;;;;;;;;;;;;;;21.26;80.27;100467.00;5047460;28;1458;-87
2022/09/06 10:28:21;;;;;;;;;;;;;;;21.29;79.22;100462.69;5036176;28;1431;-88
2022/09/06 10:30:58;;;;;;;;;;;;;;;21.31;79.64;100463.97;5036088;28;1291;-86
2022/09/06 10:33:42;;;;;;;;;;;;;;;21.33;80.16;100467.22;5045013;28;1303;-87
2022/09/06 10:36:07;;;;;;;;;;;;;;;21.40;79.03;100459.06;5038499;28;1025;-87
2022/09/06 10:38:48;;;;;;;;;;;;;;;21.42;78.88;100459.53;5037119;28;1201;-87
2022/09/06 10:41:28;;;;;;;;;;;;;;;21.48;78.75;100458.09;5036554;28;1882;-88
2022/09/06 10:44:01;;;;;;;;;;;;;;;21.48;78.85;100454.50;5037889;28;1302;-87
2022/09/06 10:46:27;;;;;;;;;;;;;;;21.49;76.93;100451.38;5021532;28;1314;-86
2022/09/06 10:48:53;;;;;;;;;;;;;;;21.55;77.84;100443.56;5025978;28;1280;-86
2022/09/06 10:51:37;;;;;;;;;;;;;;;21.58;78.91;100442.84;5037525;28;1298;-87
2022/09/06 10:54:06;;;;;;;;;;;;;;;21.63;78.18;100448.16;5038898;28;1202;-86
2022/09/06 10:56:36;;;;;;;;;;;;;;;21.68;78.48;100445.13;5037880;28;1334;-86
2022/09/06 10:59:06;;;;;;;;;;;;;;;21.71;79.07;100443.59;5037366;28;1337;-87
2022/09/06 11:01:39;;;;;;;;;;;;;;;21.75;77.61;100442.53;5027695;28;1902;-87
2022/09/06 11:04:08;;;;;;;;;;;;;;;21.83;77.97;100438.78;5022592;28;1439;-87
2022/09/06 11:06:36;;;;;;;;;;;;;;;21.86;77.68;100437.25;5035995;28;1322;-88
2022/09/06 11:09:15;;;;;;;;;;;;;;;21.90;77.49;100440.94;5036333;28;1213;-86
2022/09/06 11:11:46;;;;;;;;;;;;;;;21.87;77.45;100436.88;5037077;28;1391;-88
2022/09/06 11:14:12;;;;;;;;;;;;;;;21.90;77.98;100438.13;5038849;28;1186;-87
2022/09/06 11:16:42;;;;;;;;;;;;;;;21.98;78.55;100434.41;5036440;28;1215;-88
2022/09/06 11:19:10;;;;;;;;;;;;;;;22.02;77.79;100434.50;5043954;28;1654;-86
2022/09/06 11:21:35;;;;;;;;;;;;;;;22.08;77.05;100439.44;5037481;28;1894;-87
2022/09/06 11:24:10;;;;;;;;;;;;;;;22.15;76.56;100434.03;5037195;28;1063;-88
2022/09/06 11:26:41;;;;;;;;;;;;;;;22.18;75.35;100441.69;5040367;28;1053;-87
2022/09/06 11:29:08;;;;;;;;;;;;;;;22.19;76.47;100440.53;5039923;28;1360;-89
2022/09/06 11:31:47;;;;;;;;;;;;;;;22.22;76.61;100439.78;5039014;28;1371;-86
2022/09/06 11:34:19;;;;;;;;;;;;;;;22.34;75.83;100426.94;5043185;28;1297;-87
2022/09/06 11:36:45;;;;;;;;;;;;;;;22.35;75.75;100443.31;5046405;28;1536;-87
2022/09/06 11:39:10;;;;;;;;;;;;;;;22.36;76.30;100433.78;5042671;28;1484;-87
2022/09/06 11:41:40;;;;;;;;;;;;;;;22.37;77.00;100434.59;5036281;28;1902;-87
2022/09/06 11:44:09;;;;;;;;;;;;;;;22.41;75.72;100433.50;5060882;28;862;-88
2022/09/06 11:46:34;;;;;;;;;;;;;;;22.44;76.58;100427.19;5045590;28;1442;-88
2022/09/06 11:49:00;;;;;;;;;;;;;;;22.48;76.04;100416.13;5045920;28;1633;-87
2022/09/06 11:51:37;;;;;;;;;;;;;;;22.50;75.44;100409.00;5057219;28;1489;-89
2022/09/06 11:54:07;;;;;;;;;;;;;;;22.58;75.63;100413.56;5033967;28;1271;-88
2022/09/06 11:56:38;;;;;;;;;;;;;;;22.62;74.30;100414.47;5042370;28;1252;-87
2022/09/06 11:59:16;;;;;;;;;;;;;;;22.67;74.40;100413.38;5060917;28;1386;-88
2022/09/06 12:01:57;;;;;;;;;;;;;;;22.73;74.38;100403.53;5021222;28;1894;-89
2022/09/06 12:04:22;;;;;;;;;;;;;;;22.74;72.87;100402.41;5047768;28;1493;-87
2022/09/06 12:07:06;;;;;;;;;;;;;;;22.86;73.67;100404.25;5061238;28;1160;-88
2022/09/06 12:09:33;;;;;;;;;;;;;;;22.92;73.86;100408.38;5024500;28;1455;-87
2022/09/06 12:11:59;;;;;;;;;;;;;;;22.94;73.76;100403.25;5048235;28;1252;-87
2022/09/06 12:14:35;;;;;;;;;;;;;;;23.00;73.30;100399.78;5040263;28;1291;-87
2022/09/06 12:17:03;;;;;;;;;;;;;;;23.14;72.61;100404.84;5040988;28;1775;-86
2022/09/06 12:19:47;;;;;;;;;;;;;;;23.19;71.98;100407.38;5049800;28;1469;-87
2022/09/06 12:22:36;;;;;;;;;;;;;;;23.22;73.75;100403.03;5046647;28;1894;-87
2022/09/06 12:25:15;;;;;;;;;;;;;;;23.27;73.75;100391.56;5035278;28;1342;-87
2022/09/06 12:27:52;;;;;;;;;;;;;;;23.33;71.99;100396.47;5057261;28;1351;-87
2022/09/06 12:30:37;;;;;;;;;;;;;;;23.38;72.71;100396.19;5043740;28;1687;-87
2022/09/06 12:33:12;;;;;;;;;;;;;;;23.55;72.53;100397.75;5022471;28;1448;-88
2022/09/06 12:35:37;;;;;;;;;;;;;;;23.68;70.95;100395.56;5024239;28;1252;-87
2022/09/06 12:38:04;;;;;;;;;;;;;;;23.65;72.04;100397.09;5055706;28;1414;-87
2022/09/06 12:40:31;;;;;;;;;;;;;;;23.72;70.02;100386.09;5058590;28;1965;-87
2022/09/06 12:42:56;;;;;;;;;;;;;;;23.75;70.66;100390.91;5052220;28;1617;-90
2022/09/06 12:45:22;;;;;;;;;;;;;;;23.83;70.36;100380.66;5062998;28;1132;-87
2022/09/06 12:47:48;;;;;;;;;;;;;;;23.87;70.09;100380.75;5062505;28;1425;-87
2022/09/06 12:50:18;;;;;;;;;;;;;;;24.02;68.51;100374.19;5048404;28;1189;-87
2022/09/06 12:52:44;;;;;;;;;;;;;;;24.09;69.09;100369.53;5039970;28;1258;-87